Time;durP1;ratioP1;P1;durP2;ratioP2;P2;SDS_P1;SDS_P2;PMS_P1;PMS_P2;Temp;Humidity;BMP_temperature;BMP_pressure;BME280_temperature;BME280_humidity;BME280_pressure;Samples;Min_cycle;Max_cycle;Signal;HPM_P1;HPM_P2
2023/03/16 00:02:16;;;;;;;0.75;0.75;;;;;;;3.17;91.82;100096.84;6207528;23;20490;-90
2023/03/16 00:04:46;;;;;;;0.00;0.00;;;;;;;3.01;92.17;100077.19;6209166;23;20113;-89
2023/03/16 00:07:12;;;;;;;0.25;0.25;;;;;;;3.26;92.47;100114.50;6207664;23;20019;-89
2023/03/16 00:09:41;;;;;;;0.00;0.00;;;;;;;3.18;93.39;100118.41;6158966;23;20024;-89
2023/03/16 00:12:17;;;;;;;0.20;0.20;;;;;;;3.19;93.57;100124.66;6182265;23;20067;-89
2023/03/16 00:14:46;;;;;;;0.00;0.00;;;;;;;3.24;93.08;100127.81;6182992;23;20458;-89
2023/03/16 00:17:18;;;;;;;0.10;0.10;;;;;;;3.18;93.30;100123.09;6181215;23;20025;-89
2023/03/16 00:19:55;;;;;;;0.00;0.00;;;;;;;3.12;93.24;100099.94;6184694;23;20008;-89
2023/03/16 00:22:26;;;;;;;0.20;0.20;;;;;;;3.14;93.92;100114.06;6181665;23;20604;-89
2023/03/16 00:24:52;;;;;;;1.02;0.50;;;;;;;3.25;93.54;100128.59;6182537;23;20047;-89
2023/03/16 00:27:18;;;;;;;0.10;0.10;;;;;;;3.18;93.83;100118.41;6156657;23;20005;-90
2023/03/16 00:29:46;;;;;;;0.00;0.00;;;;;;;3.21;93.95;100109.38;6156474;23;20095;-90
2023/03/16 00:32:16;;;;;;;1.35;0.65;;;;;;;3.23;93.99;100114.50;6182125;23;20079;-88
2023/03/16 00:34:43;;;;;;;0.55;0.55;;;;;;;3.22;94.79;100121.16;6181962;23;20008;-90
2023/03/16 00:37:12;;;;;;;0.10;0.10;;;;;;;3.12;94.90;100108.97;6207557;23;20013;-90
2023/03/16 00:39:40;;;;;;;0.05;0.05;;;;;;;3.07;95.27;100122.25;6182387;23;20465;-90
2023/03/16 00:42:06;;;;;;;0.00;0.00;;;;;;;3.13;96.33;100126.97;6180281;23;20172;-88
2023/03/16 00:44:32;;;;;;;0.38;0.38;;;;;;;3.08;96.63;100118.31;6182361;23;20112;-90
2023/03/16 00:46:58;;;;;;;0.03;0.03;;;;;;;2.75;97.40;100079.03;6158766;23;20056;-90
2023/03/16 00:49:23;;;;;;;0.28;0.28;;;;;;;3.03;97.57;100121.47;6183351;23;20416;-90
2023/03/16 00:51:49;;;;;;;0.17;0.17;;;;;;;2.99;98.60;100121.44;6184163;23;20020;-89
2023/03/16 00:54:16;;;;;;;0.00;0.00;;;;;;;2.92;98.93;100106.91;6183189;23;20086;-90
2023/03/16 00:56:42;;;;;;;0.00;0.00;;;;;;;2.83;99.12;100101.00;6159909;23;20012;-89
2023/03/16 00:59:07;;;;;;;0.10;0.10;;;;;;;3.01;99.49;100129.25;6158769;23;20023;-89
2023/03/16 01:01:33;;;;;;;0.00;0.00;;;;;;;2.64;100.00;100089.13;6183605;23;20044;-89
2023/03/16 01:03:59;;;;;;;0.10;0.10;;;;;;;2.66;100.00;100092.28;6184358;23;20418;-89
2023/03/16 01:06:25;;;;;;;0.00;0.00;;;;;;;2.85;100.00;100121.34;6184417;23;20020;-89
2023/03/16 01:08:53;;;;;;;0.40;0.30;;;;;;;2.91;100.00;100140.97;6183503;23;20013;-89
2023/03/16 01:11:21;;;;;;;0.28;0.22;;;;;;;2.65;100.00;100098.94;6184814;23;20074;-89
2023/03/16 01:13:48;;;;;;;0.00;0.00;;;;;;;2.67;100.00;100102.06;6183546;23;20442;-88
2023/03/16 01:16:17;;;;;;;0.35;0.35;;;;;;;2.83;100.00;100118.22;6157710;23;20407;-89
2023/03/16 01:18:42;;;;;;;0.03;0.03;;;;;;;2.97;100.00;100133.94;6184346;23;20409;-91
2023/03/16 01:21:09;;;;;;;0.28;0.28;;;;;;;3.00;100.00;100139.44;6183518;23;20108;-92
2023/03/16 01:23:36;;;;;;;0.10;0.10;;;;;;;3.04;100.00;100144.94;6159235;23;20090;-91
2023/03/16 01:26:01;;;;;;;0.00;0.00;;;;;;;2.81;100.00;100080.25;6183529;23;20025;-91
2023/03/16 01:28:30;;;;;;;0.10;0.10;;;;;;;3.11;100.00;100109.34;6183272;23;20016;-91
2023/03/16 01:31:00;;;;;;;0.35;0.35;;;;;;;2.81;100.00;100076.72;6210006;23;20431;-90
2023/03/16 01:33:27;;;;;;;0.00;0.00;;;;;;;3.03;100.00;100122.25;6183652;23;20013;-91
2023/03/16 01:35:58;;;;;;;0.00;0.00;;;;;;;3.09;100.00;100139.09;6184136;23;20439;-91
2023/03/16 01:38:26;;;;;;;0.00;0.00;;;;;;;2.93;100.00;100125.69;6160454;23;20509;-90
2023/03/16 01:40:53;;;;;;;0.00;0.00;;;;;;;2.85;100.00;100120.56;6183986;23;20047;-90
2023/03/16 01:43:24;;;;;;;0.00;0.00;;;;;;;2.80;100.00;100114.28;6184545;23;20024;-92
2023/03/16 01:46:04;;;;;;;0.47;0.47;;;;;;;2.83;100.00;100132.69;6183395;23;20051;-91
2023/03/16 01:48:53;;;;;;;0.20;0.20;;;;;;;2.80;100.00;100127.19;6209605;23;20024;-91
2023/03/16 01:51:32;;;;;;;0.00;0.00;;;;;;;2.62;100.00;100113.41;6207540;23;20458;-91
2023/03/16 01:54:03;;;;;;;0.10;0.10;;;;;;;2.62;100.00;100126.31;6158845;23;20455;-91
2023/03/16 01:56:34;;;;;;;0.00;0.00;;;;;;;2.54;100.00;100117.25;6209009;23;20020;-91
2023/03/16 01:59:01;;;;;;;0.00;0.00;;;;;;;2.57;100.00;100132.91;6158607;23;20012;-91
2023/03/16 02:12:09;;;;;;;0.17;0.17;;;;;;;2.29;100.00;100080.69;6150390;23;20108;-90
2023/03/16 02:14:39;;;;;;;0.00;0.00;;;;;;;2.35;100.00;100093.63;6100970;23;20018;-90
2023/03/16 02:17:05;;;;;;;0.00;0.00;;;;;;;2.43;100.00;100119.13;6099385;23;20028;-90
2023/03/16 02:19:44;;;;;;;0.00;0.00;;;;;;;2.43;100.00;100119.13;6077016;23;20013;-89
2023/03/16 02:22:10;;;;;;;0.00;0.00;;;;;;;2.35;100.00;100120.22;6122221;23;20013;-90
2023/03/16 02:24:36;;;;;;;0.08;0.08;;;;;;;2.40;100.00;100121.81;6075056;23;20025;-90
2023/03/16 02:27:03;;;;;;;0.35;0.35;;;;;;;2.45;100.00;100135.97;6124054;23;20092;-89
2023/03/16 02:29:51;;;;;;;0.15;0.15;;;;;;;2.40;100.00;100139.03;6148568;23;20089;-90
2023/03/16 02:32:17;;;;;;;0.20;0.20;;;;;;;2.31;100.00;100141.31;6124770;23;20021;-90
2023/03/16 02:34:43;;;;;;;0.70;0.65;;;;;;;2.24;100.00;100124.84;6123388;23;20129;-90
2023/03/16 02:37:11;;;;;;;0.40;0.40;;;;;;;2.26;100.00;100136.22;6076635;23;20031;-90
2023/03/16 02:39:38;;;;;;;0.10;0.10;;;;;;;2.21;100.00;100144.75;6100260;23;20013;-89
2023/03/16 02:42:10;;;;;;;0.45;0.45;;;;;;;2.13;100.00;100141.19;6147940;23;20013;-90
2023/03/16 02:44:39;;;;;;;0.10;0.10;;;;;;;2.14;100.00;100142.75;6100059;23;20018;-89
2023/03/16 02:47:10;;;;;;;0.57;0.57;;;;;;;2.18;100.00;100159.22;6099086;23;20017;-89
2023/03/16 02:49:38;;;;;;;0.10;0.10;;;;;;;2.19;100.00;100158.81;6099910;23;20076;-90
2023/03/16 02:52:04;;;;;;;7.00;2.10;;;;;;;2.14;100.00;100175.59;6099156;23;20045;-90
2023/03/16 02:54:30;;;;;;;0.00;0.00;;;;;;;2.11;100.00;100172.81;6075793;23;20068;-91
2023/03/16 02:56:56;;;;;;;0.40;0.30;;;;;;;2.03;100.00;100171.16;6100190;23;20018;-90
2023/03/16 02:59:23;;;;;;;0.40;0.40;;;;;;;2.02;100.00;100178.59;6099694;23;20017;-90
2023/03/16 03:01:50;;;;;;;0.20;0.20;;;;;;;2.00;100.00;100182.84;6107334;23;20023;-90
2023/03/16 03:04:16;;;;;;;1.10;0.90;;;;;;;1.87;100.00;100177.66;6154690;23;20001;-85
2023/03/16 03:06:41;;;;;;;0.00;0.00;;;;;;;1.84;100.00;100170.22;6126655;23;20024;-85
2023/03/16 03:09:07;;;;;;;0.20;0.20;;;;;;;1.80;100.00;100183.06;6126245;23;20028;-85
2023/03/16 03:11:33;;;;;;;0.10;0.10;;;;;;;1.87;100.00;100191.34;6153396;23;20100;-85
2023/03/16 03:13:58;;;;;;;0.10;0.10;;;;;;;1.81;100.00;100192.84;6152127;23;20047;-85
2023/03/16 03:16:26;;;;;;;0.05;0.05;;;;;;;1.82;100.00;100199.88;6129650;23;20036;-90
2023/03/16 03:18:54;;;;;;;0.32;0.32;;;;;;;1.82;100.00;100205.34;6127100;23;20019;-91
2023/03/16 03:21:20;;;;;;;0.70;0.70;;;;;;;1.69;100.00;100195.84;6128654;23;20100;-90
2023/03/16 03:23:45;;;;;;;0.63;0.28;;;;;;;1.71;100.00;100196.22;6128604;23;20013;-89
2023/03/16 03:26:16;;;;;;;0.10;0.10;;;;;;;1.77;100.00;100210.38;6127576;23;20020;-89
2023/03/16 03:28:43;;;;;;;0.13;0.13;;;;;;;1.70;100.00;100205.59;6152914;23;20156;-89
2023/03/16 03:31:20;;;;;;;0.00;0.00;;;;;;;1.63;100.00;100213.72;6127894;23;20028;-89
2023/03/16 03:33:45;;;;;;;0.10;0.10;;;;;;;1.67;100.00;100211.81;6128580;23;20461;-91
2023/03/16 03:36:12;;;;;;;0.30;0.30;;;;;;;1.73;100.00;100224.00;6104509;23;20009;-89
2023/03/16 03:38:39;;;;;;;0.20;0.20;;;;;;;1.66;100.00;100232.09;6152159;23;20028;-90
2023/03/16 03:41:06;;;;;;;0.00;0.00;;;;;;;1.64;100.00;100237.16;6104847;23;20016;-90
2023/03/16 03:43:33;;;;;;;0.00;0.00;;;;;;;1.62;100.00;100231.28;6104920;23;20121;-89
2023/03/16 03:46:00;;;;;;;0.40;0.40;;;;;;;1.53;100.00;100219.06;6103630;23;20055;-89
2023/03/16 03:48:29;;;;;;;0.00;0.00;;;;;;;1.58;100.00;100241.38;6105516;23;20021;-90
2023/03/16 03:50:56;;;;;;;0.20;0.20;;;;;;;1.53;100.00;100211.66;6127112;23;20417;-90
2023/03/16 03:53:35;;;;;;;0.00;0.00;;;;;;;1.48;100.00;100217.44;6132671;23;20013;-90
2023/03/16 03:56:21;;;;;;;0.15;0.15;;;;;;;1.67;100.00;100247.34;6134283;23;20032;-89
2023/03/16 03:58:47;;;;;;;0.05;0.05;;;;;;;1.56;100.00;100242.91;6127184;23;20021;-90
2023/03/16 04:01:19;;;;;;;0.20;0.20;;;;;;;1.56;100.00;100243.72;6130486;23;20430;-85
2023/03/16 04:03:44;;;;;;;0.47;0.47;;;;;;;1.57;100.00;100249.97;6128611;23;20040;-85
2023/03/16 04:06:12;;;;;;;0.00;0.00;;;;;;;1.62;100.00;100249.66;6128786;23;20457;-85
2023/03/16 04:08:37;;;;;;;0.00;0.00;;;;;;;1.54;100.00;100254.22;6125722;23;20009;-85
2023/03/16 04:11:07;;;;;;;0.50;0.20;;;;;;;1.56;100.00;100265.59;6105129;23;20438;-85
2023/03/16 04:13:36;;;;;;;0.00;0.00;;;;;;;1.51;100.00;100260.44;6128536;23;20024;-85
2023/03/16 04:16:02;;;;;;;0.80;0.68;;;;;;;1.48;100.00;100246.72;6111204;23;20497;-85
2023/03/16 04:18:37;;;;;;;0.25;0.25;;;;;;;1.52;100.00;100270.22;6122823;23;20005;-84
2023/03/16 04:21:05;;;;;;;0.00;0.00;;;;;;;1.50;100.00;100256.13;6127721;23;20068;-85
2023/03/16 04:23:34;;;;;;;0.00;0.00;;;;;;;1.59;100.00;100275.78;6130511;23;20009;-85
2023/03/16 04:26:01;;;;;;;0.32;0.32;;;;;;;1.52;100.00;100266.69;6104871;23;20074;-85
2023/03/16 04:28:27;;;;;;;0.00;0.00;;;;;;;1.50;100.00;100271.75;6105715;23;20021;-85
2023/03/16 04:30:53;;;;;;;0.00;0.00;;;;;;;1.44;100.00;100278.69;6130629;23;20020;-85
2023/03/16 04:33:27;;;;;;;0.00;0.00;;;;;;;1.46;100.00;100281.84;6131654;23;20438;-85
2023/03/16 04:35:53;;;;;;;0.35;0.35;;;;;;;1.43;100.00;100288.81;6129481;23;20096;-84
2023/03/16 04:38:21;;;;;;;0.22;0.22;;;;;;;1.35;100.00;100277.00;6154192;23;20017;-85
2023/03/16 04:40:53;;;;;;;0.45;0.43;;;;;;;1.22;100.00;100258.47;6130461;23;20332;-88
2023/03/16 04:43:22;;;;;;;0.00;0.00;;;;;;;1.42;100.00;100293.50;6131830;23;20071;-85
2023/03/16 04:45:50;;;;;;;0.10;0.10;;;;;;;1.39;100.00;100293.47;6130182;23;20031;-84
2023/03/16 04:48:16;;;;;;;0.00;0.00;;;;;;;1.42;100.00;100292.72;6129079;23;20544;-84
2023/03/16 04:50:43;;;;;;;0.05;0.05;;;;;;;1.36;100.00;100286.00;6130383;23;20005;-84
2023/03/16 04:53:08;;;;;;;1.30;1.20;;;;;;;1.34;100.00;100288.31;6129311;23;20021;-85
2023/03/16 04:55:34;;;;;;;0.10;0.10;;;;;;;1.37;100.00;100296.56;6129563;23;20025;-84
2023/03/16 04:58:01;;;;;;;0.00;0.00;;;;;;;1.36;100.00;100307.88;6106473;23;20012;-89
2023/03/16 05:00:31;;;;;;;0.47;0.32;;;;;;;1.30;100.00;100303.84;6129632;23;20060;-90
2023/03/16 05:03:11;;;;;;;0.98;0.47;;;;;;;1.36;100.00;100305.13;6133769;23;20021;-88
2023/03/16 05:05:38;;;;;;;1.42;0.55;;;;;;;1.34;100.00;100299.22;6129993;23;20029;-89
2023/03/16 05:08:05;;;;;;;0.38;0.38;;;;;;;1.34;100.00;100310.16;6129096;23;20017;-88
2023/03/16 05:10:33;;;;;;;1.25;1.17;;;;;;;1.38;100.00;100311.00;6106421;23;20021;-85
2023/03/16 05:12:59;;;;;;;3.72;1.55;;;;;;;1.25;100.00;100293.25;6103802;23;20135;-85
2023/03/16 05:15:25;;;;;;;0.00;0.00;;;;;;;1.27;100.00;100301.88;6105636;23;20469;-85
2023/03/16 05:18:14;;;;;;;0.10;0.10;;;;;;;1.28;100.00;100314.38;6129464;23;20324;-86
2023/03/16 05:20:40;;;;;;;0.00;0.00;;;;;;;1.30;100.00;100314.78;6129529;23;20478;-85
2023/03/16 05:23:07;;;;;;;0.20;0.20;;;;;;;1.27;100.00;100308.13;6130086;23;20041;-85
2023/03/16 05:25:37;;;;;;;0.22;0.22;;;;;;;1.30;100.00;100309.31;6130235;23;20469;-85
2023/03/16 05:28:04;;;;;;;0.00;0.00;;;;;;;1.27;100.00;100310.06;6131161;23;20390;-90
2023/03/16 05:30:55;;;;;;;0.43;0.43;;;;;;;1.46;100.00;100337.28;6133072;23;20067;-90
2023/03/16 05:33:25;;;;;;;0.88;0.75;;;;;;;1.46;100.00;100337.28;6108327;23;20068;-89
2023/03/16 05:35:56;;;;;;;0.00;0.00;;;;;;;1.46;100.00;100342.75;6130411;23;20044;-90
2023/03/16 05:38:23;;;;;;;0.10;0.10;;;;;;;1.53;100.00;100331.16;6106096;23;20446;-85
2023/03/16 05:40:51;;;;;;;0.03;0.03;;;;;;;1.59;100.00;100335.91;6130356;23;20460;-85
2023/03/16 05:43:37;;;;;;;0.20;0.20;;;;;;;1.61;100.00;100350.03;6134563;23;20035;-85
2023/03/16 05:46:02;;;;;;;0.00;0.00;;;;;;;1.60;100.00;100331.25;6105918;23;20524;-85
2023/03/16 05:48:29;;;;;;;0.32;0.32;;;;;;;1.72;100.00;100339.22;6106522;23;20047;-85
2023/03/16 05:50:57;;;;;;;0.40;0.40;;;;;;;1.73;100.00;100340.81;6130842;23;20083;-84
2023/03/16 05:53:27;;;;;;;0.00;0.00;;;;;;;1.85;100.00;100359.72;6107694;23;20017;-84
2023/03/16 05:55:55;;;;;;;0.40;0.40;;;;;;;1.82;100.00;100353.03;6104708;23;20013;-86
2023/03/16 05:58:21;;;;;;;0.75;0.65;;;;;;;1.77;100.00;100338.91;6130973;23;20076;-85
2023/03/16 06:00:54;;;;;;;0.52;0.52;;;;;;;1.93;100.00;100364.13;6129227;23;20013;-86
2023/03/16 06:03:25;;;;;;;0.75;0.75;;;;;;;1.93;100.00;100368.81;6131011;23;20009;-85
2023/03/16 06:05:52;;;;;;;0.55;0.55;;;;;;;1.99;100.00;100383.72;6128697;23;20024;-86
2023/03/16 06:08:25;;;;;;;0.35;0.35;;;;;;;1.99;100.00;100381.00;6106528;23;20001;-85
2023/03/16 06:10:52;;;;;;;1.45;1.35;;;;;;;2.09;100.00;100381.16;6153030;23;20024;-86
2023/03/16 06:13:20;;;;;;;0.43;0.43;;;;;;;2.16;100.00;100374.97;6130050;23;20028;-86
2023/03/16 06:15:46;;;;;;;0.25;0.25;;;;;;;2.22;100.00;100379.75;6129864;23;20028;-85
2023/03/16 06:18:12;;;;;;;0.45;0.45;;;;;;;2.31;100.00;100365.75;6130499;23;20011;-86
2023/03/16 06:20:38;;;;;;;0.08;0.08;;;;;;;2.34;100.00;100386.94;6128612;23;20054;-86
2023/03/16 06:23:04;;;;;;;0.20;0.20;;;;;;;2.49;100.00;100393.38;6129389;23;20496;-86
2023/03/16 06:25:30;;;;;;;0.30;0.30;;;;;;;2.62;100.00;100406.44;6105817;23;20017;-86
2023/03/16 06:27:56;;;;;;;0.43;0.43;;;;;;;2.64;100.00;100390.41;6101933;23;20060;-85
2023/03/16 06:30:21;;;;;;;1.67;1.00;;;;;;;2.91;100.00;100390.28;6100010;23;20490;-86
2023/03/16 06:32:47;;;;;;;2.63;1.42;;;;;;;2.95;100.00;100408.34;6151157;23;20021;-85
2023/03/16 06:35:13;;;;;;;0.00;0.00;;;;;;;3.07;100.00;100423.72;6125704;23;20009;-91
2023/03/16 06:37:44;;;;;;;0.15;0.15;;;;;;;3.24;100.00;100428.56;6104349;23;20501;-90
2023/03/16 06:40:35;;;;;;;1.65;1.08;;;;;;;3.32;100.00;100421.97;6127042;23;20166;-91
2023/03/16 06:43:01;;;;;;;0.50;0.50;;;;;;;3.50;100.00;100436.66;6103994;23;20017;-91
2023/03/16 06:45:28;;;;;;;0.55;0.52;;;;;;;3.70;100.00;100443.47;6127388;23;20031;-90
2023/03/16 06:47:55;;;;;;;0.25;0.25;;;;;;;3.93;100.00;100445.97;6104468;23;20017;-90
2023/03/16 06:50:21;;;;;;;0.32;0.32;;;;;;;4.07;100.00;100443.31;6153112;23;20021;-87
2023/03/16 06:52:47;;;;;;;0.40;0.20;;;;;;;4.21;98.46;100448.88;6128752;23;20013;-86
2023/03/16 06:55:13;;;;;;;0.32;0.32;;;;;;;4.13;97.51;100443.72;6128814;23;20482;-86
2023/03/16 06:57:42;;;;;;;2.03;1.83;;;;;;;4.26;96.36;100461.47;6107462;23;20028;-86
2023/03/16 07:00:10;;;;;;;0.10;0.10;;;;;;;4.55;94.95;100468.69;6127964;23;20195;-86
2023/03/16 07:02:38;;;;;;;1.05;1.05;;;;;;;4.67;93.58;100460.09;6127988;23;20078;-86
2023/03/16 07:05:06;;;;;;;0.20;0.20;;;;;;;4.87;90.76;100465.25;6105217;23;20019;-86
2023/03/16 07:07:32;;;;;;;2.00;1.55;;;;;;;4.92;89.21;100471.19;6103944;23;20016;-87
2023/03/16 07:09:58;;;;;;;22.40;1.98;;;;;;;4.69;89.98;100463.22;6126889;23;20024;-86
2023/03/16 07:12:24;;;;;;;0.55;0.43;;;;;;;4.79;89.84;100474.66;6128680;23;20013;-87
2023/03/16 07:14:51;;;;;;;0.10;0.10;;;;;;;4.95;89.34;100455.84;6102952;23;20037;-86
2023/03/16 07:17:20;;;;;;;0.15;0.15;;;;;;;5.15;86.75;100457.09;6104865;23;20027;-86
2023/03/16 07:19:46;;;;;;;1.55;1.48;;;;;;;5.27;85.25;100451.22;6130249;23;20005;-86
2023/03/16 07:22:12;;;;;;;0.05;0.05;;;;;;;5.28;83.01;100477.53;6106030;23;20067;-87
2023/03/16 07:24:40;;;;;;;1.27;1.20;;;;;;;5.33;82.71;100474.41;6129172;23;20009;-87
2023/03/16 07:27:06;;;;;;;0.03;0.03;;;;;;;5.35;83.08;100471.25;6129544;23;20446;-87
2023/03/16 07:29:33;;;;;;;0.03;0.03;;;;;;;5.34;82.44;100478.72;6129661;23;20020;-86
2023/03/16 07:32:01;;;;;;;0.80;0.80;;;;;;;5.50;81.83;100484.63;6106493;23;20454;-86
2023/03/16 07:34:34;;;;;;;0.30;0.30;;;;;;;5.53;81.21;100475.63;6131189;23;20005;-86
2023/03/16 07:37:00;;;;;;;0.85;0.85;;;;;;;5.56;79.45;100477.56;6154714;23;20028;-86
2023/03/16 07:39:30;;;;;;;0.00;0.00;;;;;;;5.66;79.51;100489.78;6129480;23;20017;-87
2023/03/16 07:42:03;;;;;;;0.10;0.10;;;;;;;5.78;78.51;100478.38;6107928;23;20009;-86
2023/03/16 07:44:51;;;;;;;1.15;1.05;;;;;;;6.09;76.44;100483.09;6157961;23;20021;-86
2023/03/16 07:47:18;;;;;;;0.73;0.73;;;;;;;6.19;75.24;100492.50;6154571;23;20050;-86
2023/03/16 07:49:43;;;;;;;0.57;0.55;;;;;;;6.45;74.26;100494.81;6154081;23;20461;-86
2023/03/16 07:52:12;;;;;;;1.10;0.88;;;;;;;6.50;71.09;100491.66;6129995;23;20009;-86
2023/03/16 07:54:39;;;;;;;0.32;0.32;;;;;;;6.59;72.02;100491.25;6133612;23;20360;-87
2023/03/16 07:57:06;;;;;;;0.75;0.65;;;;;;;6.45;71.44;100456.25;6108565;23;20021;-86
2023/03/16 07:59:38;;;;;;;0.47;0.47;;;;;;;6.45;71.10;100477.50;6133968;23;20016;-87
2023/03/16 08:02:04;;;;;;;1.63;0.75;;;;;;;6.71;68.41;100498.28;6133055;23;20025;-86
2023/03/16 08:04:30;;;;;;;0.32;0.30;;;;;;;6.77;67.64;100491.94;6133003;23;20017;-86
2023/03/16 08:07:00;;;;;;;1.08;1.08;;;;;;;6.71;67.25;100492.78;6133111;23;20025;-86
2023/03/16 08:09:35;;;;;;;0.52;0.52;;;;;;;6.56;67.12;100473.50;6112485;23;20021;-86
2023/03/16 08:12:04;;;;;;;0.45;0.45;;;;;;;6.74;67.19;100497.47;6132536;23;20048;-86
2023/03/16 08:14:35;;;;;;;0.20;0.20;;;;;;;6.72;65.66;100486.84;6133149;23;20048;-85
2023/03/16 08:17:15;;;;;;;0.20;0.20;;;;;;;6.79;65.07;100494.31;6136244;23;20413;-91
2023/03/16 08:19:42;;;;;;;0.85;0.80;;;;;;;6.89;64.32;100499.00;6156714;23;20032;-92
2023/03/16 08:22:09;;;;;;;1.65;0.90;;;;;;;6.98;62.65;100499.34;6133103;23;20012;-91
2023/03/16 08:24:39;;;;;;;0.47;0.47;;;;;;;7.03;63.20;100498.94;6110333;23;20005;-91
2023/03/16 08:27:08;;;;;;;0.20;0.20;;;;;;;6.97;65.29;100493.03;6133386;23;20036;-93
2023/03/16 08:29:36;;;;;;;0.73;0.73;;;;;;;7.24;64.63;100479.47;6108645;23;20016;-91
2023/03/16 08:32:04;;;;;;;1.05;1.05;;;;;;;7.30;61.70;100499.97;6109181;23;20025;-92
2023/03/16 08:34:38;;;;;;;0.88;0.65;;;;;;;7.30;61.72;100516.50;6156750;23;20339;-92
2023/03/16 08:37:05;;;;;;;0.20;0.20;;;;;;;7.37;59.51;100497.16;6132682;23;20013;-92
2023/03/16 08:39:32;;;;;;;2.20;1.38;;;;;;;7.36;58.85;100511.38;6108400;23;20009;-92
2023/03/16 08:42:02;;;;;;;0.10;0.10;;;;;;;7.59;59.07;100499.78;6110415;23;20177;-92
2023/03/16 08:44:35;;;;;;;0.77;0.77;;;;;;;7.64;57.67;100485.53;6134040;23;20353;-92
2023/03/16 08:47:04;;;;;;;0.10;0.10;;;;;;;8.06;58.13;100503.72;6132533;23;20025;-91
2023/03/16 08:49:30;;;;;;;0.00;0.00;;;;;;;8.40;56.11;100515.66;6109423;23;20035;-91
2023/03/16 08:52:04;;;;;;;0.40;0.40;;;;;;;8.38;53.13;100498.69;6156952;23;20439;-91
2023/03/16 08:54:31;;;;;;;0.15;0.15;;;;;;;8.39;54.26;100503.03;6132223;23;20096;-91
2023/03/16 08:56:57;;;;;;;0.30;0.25;;;;;;;8.57;52.35;100511.16;6132655;23;20068;-90
2023/03/16 08:59:23;;;;;;;0.80;0.80;;;;;;;8.34;50.43;100509.78;6108251;23;20381;-92
2023/03/16 09:01:49;;;;;;;0.80;0.75;;;;;;;8.24;50.15;100507.13;6106179;23;20451;-91
2023/03/16 09:04:14;;;;;;;0.10;0.10;;;;;;;8.25;49.49;100514.97;6105900;23;20060;-91
2023/03/16 09:06:40;;;;;;;1.27;0.47;;;;;;;8.23;50.85;100527.66;6130694;23;20044;-91
2023/03/16 09:09:08;;;;;;;0.75;0.65;;;;;;;8.19;49.08;100524.13;6130908;23;20423;-91
2023/03/16 09:11:34;;;;;;;0.20;0.20;;;;;;;8.31;47.94;100526.41;6132139;23;20020;-91
2023/03/16 09:14:00;;;;;;;0.47;0.40;;;;;;;8.23;47.67;100533.97;6154748;23;20515;-90
2023/03/16 09:16:26;;;;;;;0.75;0.50;;;;;;;8.25;47.92;100526.03;6106545;23;20035;-90
2023/03/16 09:18:52;;;;;;;0.17;0.17;;;;;;;8.49;47.26;100540.06;6155213;23;20013;-90
2023/03/16 09:21:19;;;;;;;0.32;0.32;;;;;;;8.59;45.54;100533.63;6131359;23;20012;-90
2023/03/16 09:23:44;;;;;;;4.72;1.63;;;;;;;8.62;44.84;100535.56;6131199;23;20021;-92
2023/03/16 09:26:11;;;;;;;0.20;0.20;;;;;;;8.61;43.36;100532.03;6105776;23;20031;-90
2023/03/16 09:28:40;;;;;;;0.52;0.40;;;;;;;8.79;45.01;100534.59;6131301;23;20079;-91
2023/03/16 09:31:07;;;;;;;0.10;0.10;;;;;;;9.02;44.76;100526.41;6129605;23;20017;-91
2023/03/16 09:33:34;;;;;;;0.82;0.82;;;;;;;9.28;42.29;100536.75;6106173;23;20465;-90
2023/03/16 09:36:00;;;;;;;0.32;0.32;;;;;;;9.44;41.58;100538.09;6106132;23;20041;-90
2023/03/16 09:38:26;;;;;;;0.05;0.05;;;;;;;9.15;40.95;100527.41;6106247;23;20522;-90
2023/03/16 09:40:57;;;;;;;0.47;0.47;;;;;;;9.25;39.03;100523.75;6105119;23;20043;-91
2023/03/16 09:44:04;;;;;;;0.00;0.00;;;;;;;9.34;38.12;100540.59;6131147;23;20029;-91
2023/03/16 09:46:32;;;;;;;0.00;0.00;;;;;;;9.36;38.01;100542.97;6037354;23;20109;-90
2023/03/16 09:48:58;;;;;;;0.45;0.45;;;;;;;9.38;38.83;100534.25;6162817;23;20016;-90
2023/03/16 09:51:59;;;;;;;3.08;1.23;;;;;;;9.63;39.24;100534.66;6131170;23;20032;-90
2023/03/16 09:54:53;;;;;;;0.00;0.00;;;;;;;10.17;39.18;100541.75;6129988;23;20013;-91
2023/03/16 09:57:27;;;;;;;0.20;0.20;;;;;;;10.24;37.42;100552.69;6131038;23;20021;-90
2023/03/16 09:59:55;;;;;;;0.00;0.00;;;;;;;9.98;36.90;100534.13;6105239;23;20020;-90
2023/03/16 10:02:33;;;;;;;0.57;0.38;;;;;;;9.72;37.21;100546.00;6130667;23;20078;-92
2023/03/16 10:05:12;;;;;;;0.10;0.10;;;;;;;9.55;38.73;100547.03;6154720;23;20025;-90
2023/03/16 10:08:07;;;;;;;0.43;0.43;;;;;;;9.96;38.37;100547.59;6130078;23;20020;-90
2023/03/16 10:10:37;;;;;;;0.10;0.10;;;;;;;10.12;38.33;100547.72;6153968;23;20337;-91
2023/03/16 10:13:04;;;;;;;0.45;0.45;;;;;;;10.23;38.48;100556.69;6154988;23;20020;-91
2023/03/16 10:15:32;;;;;;;0.75;0.65;;;;;;;10.20;36.55;100538.13;6104772;23;20017;-92
2023/03/16 10:18:17;;;;;;;0.10;0.10;;;;;;;9.93;35.79;100548.44;6130873;23;20009;-90
2023/03/16 10:20:45;;;;;;;0.20;0.20;;;;;;;9.92;37.40;100543.31;6153360;23;20096;-91
2023/03/16 10:23:19;;;;;;;0.45;0.25;;;;;;;9.69;37.08;100544.88;6115258;23;20013;-90
2023/03/16 10:25:49;;;;;;;0.15;0.15;;;;;;;9.51;36.58;100541.56;6109303;23;20019;-88
2023/03/16 10:28:19;;;;;;;1.73;0.70;;;;;;;9.52;38.22;100536.81;6117565;23;20009;-94
2023/03/16 10:30:48;;;;;;;0.82;0.82;;;;;;;9.63;37.14;100545.75;6116589;23;20068;-91
2023/03/16 10:33:25;;;;;;;0.00;0.00;;;;;;;10.03;37.18;100541.94;6114969;23;20025;-92
2023/03/16 10:35:57;;;;;;;0.05;0.05;;;;;;;9.91;35.46;100548.06;6105623;23;20024;-91
2023/03/16 10:38:45;;;;;;;0.52;0.52;;;;;;;10.22;36.60;100554.34;6131395;23;20032;-93
2023/03/16 10:41:17;;;;;;;0.15;0.15;;;;;;;10.20;35.42;100540.09;6106207;23;20574;-93
2023/03/16 10:43:50;;;;;;;0.00;0.00;;;;;;;10.28;35.92;100542.34;6130051;23;20036;-92
2023/03/16 10:46:17;;;;;;;0.10;0.10;;;;;;;10.36;35.38;100543.00;6130573;23;20016;-92
2023/03/16 10:48:52;;;;;;;0.65;0.65;;;;;;;10.43;35.33;100514.38;6130247;23;20009;-92
2023/03/16 10:51:19;;;;;;;0.10;0.10;;;;;;;10.71;35.26;100522.94;6106469;23;20017;-92
2023/03/16 10:53:44;;;;;;;0.55;0.40;;;;;;;10.69;34.15;100524.56;6130678;23;20052;-94
2023/03/16 10:56:17;;;;;;;0.50;0.50;;;;;;;10.63;34.53;100529.81;6130465;23;20021;-92
2023/03/16 10:58:43;;;;;;;0.03;0.03;;;;;;;10.35;34.70;100535.13;6155080;23;20009;-93
2023/03/16 11:01:17;;;;;;;0.57;0.50;;;;;;;10.39;34.49;100524.75;6104616;23;20371;-93
2023/03/16 11:03:49;;;;;;;0.03;0.03;;;;;;;10.40;34.33;100529.06;6105854;23;20387;-92
2023/03/16 11:06:20;;;;;;;0.60;0.60;;;;;;;10.46;33.87;100527.38;6131175;23;20103;-92
2023/03/16 11:08:46;;;;;;;0.10;0.10;;;;;;;10.44;34.28;100510.38;6154814;23;20017;-92
2023/03/16 11:11:29;;;;;;;0.17;0.17;;;;;;;10.71;33.85;100524.91;6136768;23;20021;-92
2023/03/16 11:14:03;;;;;;;2.72;0.52;;;;;;;10.36;34.26;100540.22;6075711;23;20156;-92
2023/03/16 11:16:37;;;;;;;0.22;0.22;;;;;;;10.01;34.40;100533.28;6125726;23;20296;-91
2023/03/16 11:19:03;;;;;;;;;;;;;;;10.03;34.52;100536.38;6077397;23;20128;-92
2023/03/16 11:21:50;;;;;;;8.77;0.55;;;;;;;10.02;34.55;100540.38;6125314;23;20204;-91
2023/03/16 11:24:44;;;;;;;0.05;0.05;;;;;;;10.23;33.44;100537.25;6124444;23;20043;-92
2023/03/16 11:27:45;;;;;;;0.63;0.63;;;;;;;10.42;33.47;100541.31;6100542;23;20029;-91
2023/03/16 11:30:28;;;;;;;1.27;0.60;;;;;;;10.46;33.51;100505.19;6056168;23;20025;-94
2023/03/16 11:32:53;;;;;;;0.17;0.15;;;;;;;10.70;33.07;100529.69;6077333;23;20024;-93
2023/03/16 11:35:23;;;;;;;0.00;0.00;;;;;;;10.55;32.48;100525.63;6100649;23;20013;-92
2023/03/16 11:37:56;;;;;;;0.65;0.57;;;;;;;10.67;33.21;100529.75;6102014;23;20017;-92
2023/03/16 11:40:40;;;;;;;0.30;0.30;;;;;;;10.71;32.76;100541.56;6100630;23;20021;-92
2023/03/16 11:43:18;;;;;;;;;;;;;;;10.52;33.50;100533.97;6077389;23;20076;-91
2023/03/16 11:46:10;;;;;;;0.10;0.10;;;;;;;10.99;34.36;100529.13;6124356;23;19917;-92
2023/03/16 11:48:52;;;;;;;0.10;0.10;;;;;;;11.38;33.64;100519.94;6100799;23;20037;-92
2023/03/16 11:51:39;;;;;;;0.15;0.15;;;;;;;11.37;32.52;100521.94;6124727;23;20084;-91
2023/03/16 11:54:23;;;;;;;0.15;0.15;;;;;;;11.47;33.63;100520.13;6100349;23;20443;-90